sensor_id;sensor_type;location;lat;lon;timestamp;temperature;humidity
12446;DHT22;6287;50.984;7.022;2023-12-29T00:00:53;10.60;99.90
12446;DHT22;6287;50.984;7.022;2023-12-29T00:03:22;10.60;99.90
12446;DHT22;6287;50.984;7.022;2023-12-29T00:05:49;10.60;99.90
12446;DHT22;6287;50.984;7.022;2023-12-29T00:08:15;10.60;99.90
12446;DHT22;6287;50.984;7.022;2023-12-29T00:10:40;10.50;99.90
12446;DHT22;6287;50.984;7.022;2023-12-29T00:13:09;10.50;99.90
12446;DHT22;6287;50.984;7.022;2023-12-29T00:15:35;10.50;99.90
12446;DHT22;6287;50.984;7.022;2023-12-29T00:18:03;10.50;99.90
12446;DHT22;6287;50.984;7.022;2023-12-29T00:20:31;10.50;99.90
12446;DHT22;6287;50.984;7.022;2023-12-29T00:22:56;10.50;99.90
12446;DHT22;6287;50.984;7.022;2023-12-29T00:25:23;10.50;99.90
12446;DHT22;6287;50.984;7.022;2023-12-29T00:27:51;10.60;99.90
12446;DHT22;6287;50.984;7.022;2023-12-29T00:30:19;10.50;99.90
12446;DHT22;6287;50.984;7.022;2023-12-29T00:32:48;10.50;99.90
12446;DHT22;6287;50.984;7.022;2023-12-29T00:35:16;10.50;99.90
12446;DHT22;6287;50.984;7.022;2023-12-29T00:37:43;10.50;99.90
12446;DHT22;6287;50.984;7.022;2023-12-29T00:40:10;10.50;99.90
12446;DHT22;6287;50.984;7.022;2023-12-29T00:42:35;10.60;99.90
12446;DHT22;6287;50.984;7.022;2023-12-29T00:45:03;10.60;99.90
12446;DHT22;6287;50.984;7.022;2023-12-29T00:47:29;10.60;99.90
12446;DHT22;6287;50.984;7.022;2023-12-29T00:50:01;10.60;99.90
12446;DHT22;6287;50.984;7.022;2023-12-29T00:52:27;10.60;99.90
12446;DHT22;6287;50.984;7.022;2023-12-29T00:57:19;10.50;99.90
12446;DHT22;6287;50.984;7.022;2023-12-29T00:59:47;10.50;99.90
12446;DHT22;6287;50.984;7.022;2023-12-29T01:02:13;10.50;99.90
12446;DHT22;6287;50.984;7.022;2023-12-29T01:04:38;10.60;99.90
12446;DHT22;6287;50.984;7.022;2023-12-29T01:07:08;10.60;99.90
12446;DHT22;6287;50.984;7.022;2023-12-29T01:09:39;10.50;99.90
12446;DHT22;6287;50.984;7.022;2023-12-29T01:12:08;10.60;99.90
12446;DHT22;6287;50.984;7.022;2023-12-29T01:14:36;10.60;99.90
12446;DHT22;6287;50.984;7.022;2023-12-29T01:17:01;10.70;99.90
12446;DHT22;6287;50.984;7.022;2023-12-29T01:19:32;10.70;99.90
12446;DHT22;6287;50.984;7.022;2023-12-29T01:22:01;10.70;99.90
12446;DHT22;6287;50.984;7.022;2023-12-29T01:24:26;10.70;99.90
12446;DHT22;6287;50.984;7.022;2023-12-29T01:26:52;10.80;99.90
12446;DHT22;6287;50.984;7.022;2023-12-29T01:29:20;10.80;99.90
12446;DHT22;6287;50.984;7.022;2023-12-29T01:31:45;10.80;99.90
12446;DHT22;6287;50.984;7.022;2023-12-29T01:34:11;10.70;99.90
12446;DHT22;6287;50.984;7.022;2023-12-29T01:36:36;10.80;99.90
12446;DHT22;6287;50.984;7.022;2023-12-29T01:39:02;10.80;99.90
12446;DHT22;6287;50.984;7.022;2023-12-29T01:41:33;10.80;99.90
12446;DHT22;6287;50.984;7.022;2023-12-29T01:46:29;10.80;99.90
12446;DHT22;6287;50.984;7.022;2023-12-29T01:48:57;10.80;99.90
12446;DHT22;6287;50.984;7.022;2023-12-29T01:51:27;10.80;99.90
12446;DHT22;6287;50.984;7.022;2023-12-29T01:53:55;10.80;99.90
12446;DHT22;6287;50.984;7.022;2023-12-29T01:56:22;10.70;99.90
12446;DHT22;6287;50.984;7.022;2023-12-29T01:58:51;10.70;99.90
12446;DHT22;6287;50.984;7.022;2023-12-29T02:01:18;10.70;99.90
12446;DHT22;6287;50.984;7.022;2023-12-29T02:03:44;10.70;99.90
12446;DHT22;6287;50.984;7.022;2023-12-29T02:06:10;10.70;99.90
12446;DHT22;6287;50.984;7.022;2023-12-29T02:08:45;10.70;99.90
12446;DHT22;6287;50.984;7.022;2023-12-29T02:11:14;10.70;99.90
12446;DHT22;6287;50.984;7.022;2023-12-29T02:13:39;10.70;99.90
12446;DHT22;6287;50.984;7.022;2023-12-29T02:16:30;10.70;99.90
12446;DHT22;6287;50.984;7.022;2023-12-29T02:18:59;10.70;99.90
12446;DHT22;6287;50.984;7.022;2023-12-29T02:21:26;10.70;99.90
12446;DHT22;6287;50.984;7.022;2023-12-29T02:23:55;10.70;99.90
12446;DHT22;6287;50.984;7.022;2023-12-29T02:26:27;10.80;99.90
12446;DHT22;6287;50.984;7.022;2023-12-29T02:29:00;10.80;99.90
12446;DHT22;6287;50.984;7.022;2023-12-29T02:31:29;10.80;99.90
12446;DHT22;6287;50.984;7.022;2023-12-29T02:34:00;10.90;99.90
12446;DHT22;6287;50.984;7.022;2023-12-29T02:36:28;10.80;99.90
12446;DHT22;6287;50.984;7.022;2023-12-29T02:38:55;10.90;99.90
12446;DHT22;6287;50.984;7.022;2023-12-29T02:41:23;10.90;99.90
12446;DHT22;6287;50.984;7.022;2023-12-29T02:43:50;10.90;99.90
12446;DHT22;6287;50.984;7.022;2023-12-29T02:46:15;10.90;99.90
12446;DHT22;6287;50.984;7.022;2023-12-29T02:48:44;10.90;99.90
12446;DHT22;6287;50.984;7.022;2023-12-29T02:51:09;10.90;99.90
12446;DHT22;6287;50.984;7.022;2023-12-29T02:53:37;11.00;99.90
12446;DHT22;6287;50.984;7.022;2023-12-29T02:56:05;11.00;99.90
12446;DHT22;6287;50.984;7.022;2023-12-29T02:58:33;10.90;99.90
12446;DHT22;6287;50.984;7.022;2023-12-29T03:00:58;11.00;99.90
12446;DHT22;6287;50.984;7.022;2023-12-29T03:03:24;11.00;99.90
12446;DHT22;6287;50.984;7.022;2023-12-29T03:05:50;11.00;99.90
12446;DHT22;6287;50.984;7.022;2023-12-29T03:08:15;11.00;99.90
12446;DHT22;6287;50.984;7.022;2023-12-29T03:10:44;11.00;99.90
12446;DHT22;6287;50.984;7.022;2023-12-29T03:13:14;11.10;99.90
12446;DHT22;6287;50.984;7.022;2023-12-29T03:15:39;11.10;99.90
12446;DHT22;6287;50.984;7.022;2023-12-29T03:18:05;11.10;99.90
12446;DHT22;6287;50.984;7.022;2023-12-29T03:20:31;11.10;99.90
12446;DHT22;6287;50.984;7.022;2023-12-29T03:23:01;11.10;99.90
12446;DHT22;6287;50.984;7.022;2023-12-29T03:25:29;11.20;99.90
12446;DHT22;6287;50.984;7.022;2023-12-29T03:27:59;11.20;99.90
12446;DHT22;6287;50.984;7.022;2023-12-29T03:30:28;11.20;99.90
12446;DHT22;6287;50.984;7.022;2023-12-29T03:32:53;11.20;99.90
12446;DHT22;6287;50.984;7.022;2023-12-29T03:35:19;11.20;99.90
12446;DHT22;6287;50.984;7.022;2023-12-29T03:37:52;11.20;99.90
12446;DHT22;6287;50.984;7.022;2023-12-29T03:40:18;11.20;99.90
12446;DHT22;6287;50.984;7.022;2023-12-29T03:42:44;11.20;99.90
12446;DHT22;6287;50.984;7.022;2023-12-29T03:45:12;11.20;99.90
12446;DHT22;6287;50.984;7.022;2023-12-29T03:47:40;11.20;99.90
12446;DHT22;6287;50.984;7.022;2023-12-29T03:50:08;11.30;99.90
12446;DHT22;6287;50.984;7.022;2023-12-29T03:52:36;11.20;99.90
12446;DHT22;6287;50.984;7.022;2023-12-29T03:55:04;11.20;99.90
12446;DHT22;6287;50.984;7.022;2023-12-29T03:57:30;11.20;99.90
12446;DHT22;6287;50.984;7.022;2023-12-29T04:00:00;11.30;99.90
12446;DHT22;6287;50.984;7.022;2023-12-29T04:02:28;11.20;99.90
12446;DHT22;6287;50.984;7.022;2023-12-29T04:04:55;11.20;99.90
12446;DHT22;6287;50.984;7.022;2023-12-29T04:07:25;11.20;99.90
12446;DHT22;6287;50.984;7.022;2023-12-29T04:09:53;11.20;99.90
12446;DHT22;6287;50.984;7.022;2023-12-29T04:12:19;11.20;99.90
12446;DHT22;6287;50.984;7.022;2023-12-29T04:14:45;11.20;99.90
12446;DHT22;6287;50.984;7.022;2023-12-29T04:17:10;11.20;99.90
12446;DHT22;6287;50.984;7.022;2023-12-29T04:19:40;11.20;99.90
12446;DHT22;6287;50.984;7.022;2023-12-29T04:22:08;11.20;99.90
12446;DHT22;6287;50.984;7.022;2023-12-29T04:24:34;11.20;99.90
12446;DHT22;6287;50.984;7.022;2023-12-29T04:27:02;11.20;99.90
12446;DHT22;6287;50.984;7.022;2023-12-29T04:29:33;11.20;99.90
12446;DHT22;6287;50.984;7.022;2023-12-29T04:32:03;11.20;99.90
12446;DHT22;6287;50.984;7.022;2023-12-29T04:34:29;11.20;99.90
12446;DHT22;6287;50.984;7.022;2023-12-29T04:36:56;11.30;99.90
12446;DHT22;6287;50.984;7.022;2023-12-29T04:39:22;11.30;99.90
12446;DHT22;6287;50.984;7.022;2023-12-29T04:41:48;11.20;99.90
12446;DHT22;6287;50.984;7.022;2023-12-29T04:44:13;11.20;99.90
12446;DHT22;6287;50.984;7.022;2023-12-29T04:46:39;11.30;99.90
12446;DHT22;6287;50.984;7.022;2023-12-29T04:49:07;11.30;99.90
12446;DHT22;6287;50.984;7.022;2023-12-29T04:51:33;11.30;99.90
12446;DHT22;6287;50.984;7.022;2023-12-29T04:54:03;11.30;99.90
12446;DHT22;6287;50.984;7.022;2023-12-29T04:56:29;11.30;99.90
12446;DHT22;6287;50.984;7.022;2023-12-29T04:58:56;11.30;99.90
12446;DHT22;6287;50.984;7.022;2023-12-29T05:01:24;11.30;99.90
12446;DHT22;6287;50.984;7.022;2023-12-29T05:03:53;11.30;99.90
12446;DHT22;6287;50.984;7.022;2023-12-29T05:06:25;11.30;99.90
12446;DHT22;6287;50.984;7.022;2023-12-29T05:08:51;11.30;99.90
12446;DHT22;6287;50.984;7.022;2023-12-29T05:11:17;11.30;99.90
12446;DHT22;6287;50.984;7.022;2023-12-29T05:13:45;11.30;99.90
12446;DHT22;6287;50.984;7.022;2023-12-29T05:16:13;11.30;99.90
12446;DHT22;6287;50.984;7.022;2023-12-29T05:18:39;11.30;99.90
12446;DHT22;6287;50.984;7.022;2023-12-29T05:21:05;11.20;99.90
12446;DHT22;6287;50.984;7.022;2023-12-29T05:23:33;11.20;99.90
12446;DHT22;6287;50.984;7.022;2023-12-29T05:25:59;11.20;99.90
12446;DHT22;6287;50.984;7.022;2023-12-29T05:28:25;11.20;99.90
12446;DHT22;6287;50.984;7.022;2023-12-29T05:30:50;11.20;99.90
12446;DHT22;6287;50.984;7.022;2023-12-29T05:33:16;11.10;99.90
12446;DHT22;6287;50.984;7.022;2023-12-29T05:35:41;11.20;99.90
12446;DHT22;6287;50.984;7.022;2023-12-29T05:38:07;11.10;99.90
12446;DHT22;6287;50.984;7.022;2023-12-29T05:40:33;11.10;99.90
12446;DHT22;6287;50.984;7.022;2023-12-29T05:42:59;11.10;99.90
12446;DHT22;6287;50.984;7.022;2023-12-29T05:45:24;11.00;99.90
12446;DHT22;6287;50.984;7.022;2023-12-29T05:47:54;11.00;99.90
12446;DHT22;6287;50.984;7.022;2023-12-29T05:50:20;11.00;99.90
12446;DHT22;6287;50.984;7.022;2023-12-29T05:52:46;11.00;99.90
12446;DHT22;6287;50.984;7.022;2023-12-29T05:55:17;11.00;99.90
12446;DHT22;6287;50.984;7.022;2023-12-29T05:57:46;10.90;99.90
12446;DHT22;6287;50.984;7.022;2023-12-29T06:00:12;10.90;99.90
12446;DHT22;6287;50.984;7.022;2023-12-29T06:02:43;10.90;99.90
12446;DHT22;6287;50.984;7.022;2023-12-29T06:05:11;10.90;99.90
12446;DHT22;6287;50.984;7.022;2023-12-29T06:07:39;10.90;99.90
12446;DHT22;6287;50.984;7.022;2023-12-29T06:10:08;10.90;99.90
12446;DHT22;6287;50.984;7.022;2023-12-29T06:12:34;10.90;99.90
12446;DHT22;6287;50.984;7.022;2023-12-29T06:15:00;10.90;99.90
12446;DHT22;6287;50.984;7.022;2023-12-29T06:17:26;10.90;99.90
12446;DHT22;6287;50.984;7.022;2023-12-29T06:19:56;10.80;99.90
12446;DHT22;6287;50.984;7.022;2023-12-29T06:22:27;10.80;99.90
12446;DHT22;6287;50.984;7.022;2023-12-29T06:24:53;10.80;99.90
12446;DHT22;6287;50.984;7.022;2023-12-29T06:27:19;10.80;99.90
12446;DHT22;6287;50.984;7.022;2023-12-29T06:29:49;10.80;99.90
12446;DHT22;6287;50.984;7.022;2023-12-29T06:32:15;10.80;99.90
12446;DHT22;6287;50.984;7.022;2023-12-29T06:34:41;10.80;99.90
12446;DHT22;6287;50.984;7.022;2023-12-29T06:37:07;10.80;99.90
12446;DHT22;6287;50.984;7.022;2023-12-29T06:39:34;10.80;99.90
12446;DHT22;6287;50.984;7.022;2023-12-29T06:42:00;10.80;99.90
12446;DHT22;6287;50.984;7.022;2023-12-29T06:44:26;10.80;99.90
12446;DHT22;6287;50.984;7.022;2023-12-29T06:46:56;10.80;99.90
12446;DHT22;6287;50.984;7.022;2023-12-29T06:49:21;10.80;99.90
12446;DHT22;6287;50.984;7.022;2023-12-29T06:51:47;10.80;99.90
12446;DHT22;6287;50.984;7.022;2023-12-29T06:54:13;10.80;99.90
12446;DHT22;6287;50.984;7.022;2023-12-29T06:56:38;10.80;99.90
12446;DHT22;6287;50.984;7.022;2023-12-29T06:59:06;10.90;99.90
12446;DHT22;6287;50.984;7.022;2023-12-29T07:01:32;10.90;99.90
12446;DHT22;6287;50.984;7.022;2023-12-29T07:03:58;10.90;99.90
12446;DHT22;6287;50.984;7.022;2023-12-29T07:06:28;10.90;99.90
12446;DHT22;6287;50.984;7.022;2023-12-29T07:08:53;11.00;99.90
12446;DHT22;6287;50.984;7.022;2023-12-29T07:11:21;10.90;99.90
12446;DHT22;6287;50.984;7.022;2023-12-29T07:13:51;11.00;99.90
12446;DHT22;6287;50.984;7.022;2023-12-29T07:16:17;11.00;99.90
12446;DHT22;6287;50.984;7.022;2023-12-29T07:18:47;11.00;99.90
12446;DHT22;6287;50.984;7.022;2023-12-29T07:21:14;11.00;99.90
12446;DHT22;6287;50.984;7.022;2023-12-29T07:23:40;11.00;99.90
12446;DHT22;6287;50.984;7.022;2023-12-29T07:26:07;11.00;99.90
12446;DHT22;6287;50.984;7.022;2023-12-29T07:28:35;11.00;99.90
12446;DHT22;6287;50.984;7.022;2023-12-29T07:31:01;11.00;99.90
12446;DHT22;6287;50.984;7.022;2023-12-29T07:33:27;11.00;99.90
12446;DHT22;6287;50.984;7.022;2023-12-29T07:35:53;11.00;99.90
12446;DHT22;6287;50.984;7.022;2023-12-29T07:38:21;11.00;99.90
12446;DHT22;6287;50.984;7.022;2023-12-29T07:40:47;11.00;99.90
12446;DHT22;6287;50.984;7.022;2023-12-29T07:43:15;11.00;99.90
12446;DHT22;6287;50.984;7.022;2023-12-29T07:45:41;11.00;99.90
12446;DHT22;6287;50.984;7.022;2023-12-29T07:48:08;11.00;99.90
12446;DHT22;6287;50.984;7.022;2023-12-29T07:50:34;11.00;99.90
12446;DHT22;6287;50.984;7.022;2023-12-29T07:53:02;11.00;99.90
12446;DHT22;6287;50.984;7.022;2023-12-29T07:55:30;11.00;99.90
12446;DHT22;6287;50.984;7.022;2023-12-29T07:57:58;11.00;99.90
12446;DHT22;6287;50.984;7.022;2023-12-29T08:00:24;11.10;99.90
12446;DHT22;6287;50.984;7.022;2023-12-29T08:02:52;11.00;99.90
12446;DHT22;6287;50.984;7.022;2023-12-29T08:05:20;11.00;99.90
12446;DHT22;6287;50.984;7.022;2023-12-29T08:07:46;10.90;99.90
12446;DHT22;6287;50.984;7.022;2023-12-29T08:10:14;10.90;99.90
12446;DHT22;6287;50.984;7.022;2023-12-29T08:12:40;10.80;99.90
12446;DHT22;6287;50.984;7.022;2023-12-29T08:15:08;10.70;99.90
12446;DHT22;6287;50.984;7.022;2023-12-29T08:17:34;10.60;99.90
12446;DHT22;6287;50.984;7.022;2023-12-29T08:19:59;10.60;99.90
12446;DHT22;6287;50.984;7.022;2023-12-29T08:22:30;10.50;99.90
12446;DHT22;6287;50.984;7.022;2023-12-29T08:24:56;10.40;99.90
12446;DHT22;6287;50.984;7.022;2023-12-29T08:27:25;10.40;99.90
12446;DHT22;6287;50.984;7.022;2023-12-29T08:29:51;10.30;99.90
12446;DHT22;6287;50.984;7.022;2023-12-29T08:32:24;10.20;99.90
12446;DHT22;6287;50.984;7.022;2023-12-29T08:34:49;10.10;99.90
12446;DHT22;6287;50.984;7.022;2023-12-29T08:37:15;10.10;99.90
12446;DHT22;6287;50.984;7.022;2023-12-29T08:39:48;10.00;99.90
12446;DHT22;6287;50.984;7.022;2023-12-29T08:42:18;10.00;99.90
12446;DHT22;6287;50.984;7.022;2023-12-29T08:44:45;10.00;99.90
12446;DHT22;6287;50.984;7.022;2023-12-29T08:47:18;10.00;99.90
12446;DHT22;6287;50.984;7.022;2023-12-29T08:49:44;10.00;99.90
12446;DHT22;6287;50.984;7.022;2023-12-29T08:52:14;10.00;99.90
12446;DHT22;6287;50.984;7.022;2023-12-29T08:54:44;10.00;99.90
12446;DHT22;6287;50.984;7.022;2023-12-29T08:57:09;10.00;99.90
12446;DHT22;6287;50.984;7.022;2023-12-29T08:59:35;10.00;99.90
12446;DHT22;6287;50.984;7.022;2023-12-29T09:02:03;10.00;99.90
12446;DHT22;6287;50.984;7.022;2023-12-29T09:04:29;10.00;99.90
12446;DHT22;6287;50.984;7.022;2023-12-29T09:06:56;9.90;99.90
12446;DHT22;6287;50.984;7.022;2023-12-29T09:09:22;9.90;99.90
12446;DHT22;6287;50.984;7.022;2023-12-29T09:11:50;10.00;99.90
12446;DHT22;6287;50.984;7.022;2023-12-29T09:14:16;10.00;99.90
12446;DHT22;6287;50.984;7.022;2023-12-29T09:16:41;10.00;99.90
12446;DHT22;6287;50.984;7.022;2023-12-29T09:19:13;10.00;99.90
12446;DHT22;6287;50.984;7.022;2023-12-29T09:21:39;10.00;99.90
12446;DHT22;6287;50.984;7.022;2023-12-29T09:24:05;10.00;99.90
12446;DHT22;6287;50.984;7.022;2023-12-29T09:26:30;10.00;99.90
12446;DHT22;6287;50.984;7.022;2023-12-29T09:28:56;10.00;99.90
12446;DHT22;6287;50.984;7.022;2023-12-29T09:31:24;10.00;99.90
12446;DHT22;6287;50.984;7.022;2023-12-29T09:33:52;10.00;99.90
12446;DHT22;6287;50.984;7.022;2023-12-29T09:36:20;10.00;99.90
12446;DHT22;6287;50.984;7.022;2023-12-29T09:38:50;10.00;99.90
12446;DHT22;6287;50.984;7.022;2023-12-29T09:41:18;10.00;99.90
12446;DHT22;6287;50.984;7.022;2023-12-29T09:43:48;10.10;99.90
12446;DHT22;6287;50.984;7.022;2023-12-29T09:46:17;10.10;99.90
12446;DHT22;6287;50.984;7.022;2023-12-29T09:48:46;10.10;99.90
12446;DHT22;6287;50.984;7.022;2023-12-29T09:51:15;10.10;99.90
12446;DHT22;6287;50.984;7.022;2023-12-29T09:53:42;10.10;99.90
12446;DHT22;6287;50.984;7.022;2023-12-29T09:56:11;10.20;99.90
12446;DHT22;6287;50.984;7.022;2023-12-29T09:58:38;10.20;99.90
12446;DHT22;6287;50.984;7.022;2023-12-29T10:01:04;10.20;99.90
12446;DHT22;6287;50.984;7.022;2023-12-29T10:03:30;10.30;99.90
12446;DHT22;6287;50.984;7.022;2023-12-29T10:06:00;10.30;99.90
12446;DHT22;6287;50.984;7.022;2023-12-29T10:08:27;10.30;99.90
12446;DHT22;6287;50.984;7.022;2023-12-29T10:10:55;10.30;99.90
12446;DHT22;6287;50.984;7.022;2023-12-29T10:13:21;10.30;99.90
12446;DHT22;6287;50.984;7.022;2023-12-29T10:18:32;10.40;99.90
12446;DHT22;6287;50.984;7.022;2023-12-29T10:21:17;10.40;99.90
12446;DHT22;6287;50.984;7.022;2023-12-29T10:24:10;10.40;99.90
12446;DHT22;6287;50.984;7.022;2023-12-29T10:26:40;10.40;99.90
12446;DHT22;6287;50.984;7.022;2023-12-29T10:29:06;10.40;99.90
12446;DHT22;6287;50.984;7.022;2023-12-29T10:31:32;10.40;99.90
12446;DHT22;6287;50.984;7.022;2023-12-29T10:34:20;10.50;99.90
12446;DHT22;6287;50.984;7.022;2023-12-29T10:36:47;10.50;99.90
12446;DHT22;6287;50.984;7.022;2023-12-29T10:39:15;10.60;99.90
12446;DHT22;6287;50.984;7.022;2023-12-29T10:41:42;10.70;99.90
12446;DHT22;6287;50.984;7.022;2023-12-29T10:44:08;10.70;99.90
12446;DHT22;6287;50.984;7.022;2023-12-29T10:46:36;10.70;99.90
12446;DHT22;6287;50.984;7.022;2023-12-29T10:51:37;10.80;99.90
12446;DHT22;6287;50.984;7.022;2023-12-29T10:54:06;10.90;99.90
12446;DHT22;6287;50.984;7.022;2023-12-29T10:56:34;10.90;99.90
12446;DHT22;6287;50.984;7.022;2023-12-29T10:59:04;10.90;99.90
12446;DHT22;6287;50.984;7.022;2023-12-29T11:01:39;10.90;99.90
12446;DHT22;6287;50.984;7.022;2023-12-29T11:04:06;10.90;99.90
12446;DHT22;6287;50.984;7.022;2023-12-29T11:06:42;11.00;99.90
12446;DHT22;6287;50.984;7.022;2023-12-29T11:09:11;11.00;99.90
12446;DHT22;6287;50.984;7.022;2023-12-29T11:11:37;11.10;99.90
12446;DHT22;6287;50.984;7.022;2023-12-29T11:14:03;11.10;99.90
12446;DHT22;6287;50.984;7.022;2023-12-29T11:16:30;11.10;99.90
12446;DHT22;6287;50.984;7.022;2023-12-29T11:18:58;11.20;99.90
12446;DHT22;6287;50.984;7.022;2023-12-29T11:21:32;11.20;99.90
12446;DHT22;6287;50.984;7.022;2023-12-29T11:24:00;11.30;99.90
12446;DHT22;6287;50.984;7.022;2023-12-29T11:26:27;11.40;99.90
12446;DHT22;6287;50.984;7.022;2023-12-29T11:28:56;11.40;99.90
12446;DHT22;6287;50.984;7.022;2023-12-29T11:31:22;11.50;99.90
12446;DHT22;6287;50.984;7.022;2023-12-29T11:33:56;11.60;99.90
12446;DHT22;6287;50.984;7.022;2023-12-29T11:36:28;11.60;99.90
12446;DHT22;6287;50.984;7.022;2023-12-29T11:39:11;11.70;99.90
12446;DHT22;6287;50.984;7.022;2023-12-29T11:44:26;11.80;99.90
12446;DHT22;6287;50.984;7.022;2023-12-29T11:46:53;11.80;99.90
12446;DHT22;6287;50.984;7.022;2023-12-29T11:49:23;11.90;99.90
12446;DHT22;6287;50.984;7.022;2023-12-29T11:51:50;11.90;99.90
12446;DHT22;6287;50.984;7.022;2023-12-29T11:54:27;11.90;99.90
12446;DHT22;6287;50.984;7.022;2023-12-29T11:56:57;12.00;99.90
12446;DHT22;6287;50.984;7.022;2023-12-29T11:59:26;11.90;99.90
12446;DHT22;6287;50.984;7.022;2023-12-29T12:01:53;11.90;99.90
12446;DHT22;6287;50.984;7.022;2023-12-29T12:04:43;11.90;99.90
12446;DHT22;6287;50.984;7.022;2023-12-29T12:10:31;11.90;99.90
12446;DHT22;6287;50.984;7.022;2023-12-29T12:13:06;11.90;99.90
12446;DHT22;6287;50.984;7.022;2023-12-29T12:15:34;11.80;99.90
12446;DHT22;6287;50.984;7.022;2023-12-29T12:18:02;11.80;99.90
12446;DHT22;6287;50.984;7.022;2023-12-29T12:20:32;11.90;99.90
12446;DHT22;6287;50.984;7.022;2023-12-29T12:22:59;12.00;99.90
12446;DHT22;6287;50.984;7.022;2023-12-29T12:25:26;12.00;99.90
12446;DHT22;6287;50.984;7.022;2023-12-29T12:27:55;12.10;99.90
12446;DHT22;6287;50.984;7.022;2023-12-29T12:30:25;12.00;99.90
12446;DHT22;6287;50.984;7.022;2023-12-29T12:33:03;12.10;99.90
12446;DHT22;6287;50.984;7.022;2023-12-29T12:35:29;12.00;99.90
12446;DHT22;6287;50.984;7.022;2023-12-29T12:40:34;12.00;99.90
12446;DHT22;6287;50.984;7.022;2023-12-29T12:43:01;12.00;99.90
12446;DHT22;6287;50.984;7.022;2023-12-29T12:45:27;12.00;99.90
12446;DHT22;6287;50.984;7.022;2023-12-29T12:48:18;12.00;99.90
12446;DHT22;6287;50.984;7.022;2023-12-29T12:50:45;12.00;99.90
12446;DHT22;6287;50.984;7.022;2023-12-29T12:53:13;12.00;99.90
12446;DHT22;6287;50.984;7.022;2023-12-29T12:55:50;12.10;99.90
12446;DHT22;6287;50.984;7.022;2023-12-29T12:58:18;12.10;99.90
12446;DHT22;6287;50.984;7.022;2023-12-29T13:00:45;12.10;99.90
12446;DHT22;6287;50.984;7.022;2023-12-29T13:03:14;12.00;99.90
12446;DHT22;6287;50.984;7.022;2023-12-29T13:05:43;12.00;99.90
12446;DHT22;6287;50.984;7.022;2023-12-29T13:08:09;12.00;99.90
12446;DHT22;6287;50.984;7.022;2023-12-29T13:10:43;12.00;99.90
12446;DHT22;6287;50.984;7.022;2023-12-29T13:13:10;12.00;99.90
12446;DHT22;6287;50.984;7.022;2023-12-29T13:15:38;12.00;99.90
12446;DHT22;6287;50.984;7.022;2023-12-29T13:18:09;12.00;99.90
12446;DHT22;6287;50.984;7.022;2023-12-29T13:20:44;12.00;99.90
12446;DHT22;6287;50.984;7.022;2023-12-29T13:23:14;12.00;99.90
12446;DHT22;6287;50.984;7.022;2023-12-29T13:25:42;12.00;99.90
12446;DHT22;6287;50.984;7.022;2023-12-29T13:28:08;12.00;99.90
12446;DHT22;6287;50.984;7.022;2023-12-29T13:30:40;12.00;99.90
12446;DHT22;6287;50.984;7.022;2023-12-29T13:38:41;12.00;99.90
12446;DHT22;6287;50.984;7.022;2023-12-29T13:41:17;12.00;99.90
12446;DHT22;6287;50.984;7.022;2023-12-29T13:43:44;11.90;99.90
12446;DHT22;6287;50.984;7.022;2023-12-29T13:46:12;11.90;99.90
12446;DHT22;6287;50.984;7.022;2023-12-29T13:48:40;11.90;99.90
12446;DHT22;6287;50.984;7.022;2023-12-29T13:51:07;11.90;99.90
12446;DHT22;6287;50.984;7.022;2023-12-29T13:53:32;11.80;99.90
12446;DHT22;6287;50.984;7.022;2023-12-29T13:56:08;11.90;99.90
12446;DHT22;6287;50.984;7.022;2023-12-29T13:58:37;11.90;99.90
12446;DHT22;6287;50.984;7.022;2023-12-29T14:01:06;11.80;99.90
12446;DHT22;6287;50.984;7.022;2023-12-29T14:03:58;11.90;99.90
12446;DHT22;6287;50.984;7.022;2023-12-29T14:06:31;11.80;99.90
12446;DHT22;6287;50.984;7.022;2023-12-29T14:09:01;11.80;99.90
12446;DHT22;6287;50.984;7.022;2023-12-29T14:11:26;11.70;99.90
12446;DHT22;6287;50.984;7.022;2023-12-29T14:13:58;11.80;99.90
12446;DHT22;6287;50.984;7.022;2023-12-29T14:16:26;11.80;99.90
12446;DHT22;6287;50.984;7.022;2023-12-29T14:18:56;11.60;99.90
12446;DHT22;6287;50.984;7.022;2023-12-29T14:24:07;11.30;99.90
12446;DHT22;6287;50.984;7.022;2023-12-29T14:26:33;11.20;99.90
12446;DHT22;6287;50.984;7.022;2023-12-29T14:29:09;11.20;99.90
12446;DHT22;6287;50.984;7.022;2023-12-29T14:31:42;11.10;99.90
12446;DHT22;6287;50.984;7.022;2023-12-29T14:34:10;11.00;99.90
12446;DHT22;6287;50.984;7.022;2023-12-29T14:36:39;11.00;99.90
12446;DHT22;6287;50.984;7.022;2023-12-29T14:39:06;10.90;99.90
12446;DHT22;6287;50.984;7.022;2023-12-29T14:41:32;10.90;99.90
12446;DHT22;6287;50.984;7.022;2023-12-29T14:44:02;10.90;99.90
12446;DHT22;6287;50.984;7.022;2023-12-29T14:46:31;10.80;99.90
12446;DHT22;6287;50.984;7.022;2023-12-29T14:49:02;10.80;99.90
12446;DHT22;6287;50.984;7.022;2023-12-29T14:51:31;10.80;99.90
12446;DHT22;6287;50.984;7.022;2023-12-29T14:53:59;10.90;99.90
12446;DHT22;6287;50.984;7.022;2023-12-29T14:56:24;10.80;99.90
12446;DHT22;6287;50.984;7.022;2023-12-29T14:58:52;10.80;99.90
12446;DHT22;6287;50.984;7.022;2023-12-29T15:01:20;10.80;99.90
12446;DHT22;6287;50.984;7.022;2023-12-29T15:03:46;10.80;99.90
12446;DHT22;6287;50.984;7.022;2023-12-29T15:06:14;10.80;99.90
12446;DHT22;6287;50.984;7.022;2023-12-29T15:08:40;10.80;99.90
12446;DHT22;6287;50.984;7.022;2023-12-29T15:11:10;10.80;99.90
12446;DHT22;6287;50.984;7.022;2023-12-29T15:13:36;10.80;99.90
12446;DHT22;6287;50.984;7.022;2023-12-29T15:16:05;10.80;99.90
12446;DHT22;6287;50.984;7.022;2023-12-29T15:18:34;10.80;99.90
12446;DHT22;6287;50.984;7.022;2023-12-29T15:21:05;10.80;99.90
12446;DHT22;6287;50.984;7.022;2023-12-29T15:23:33;10.80;99.90
12446;DHT22;6287;50.984;7.022;2023-12-29T15:25:59;10.90;99.90
12446;DHT22;6287;50.984;7.022;2023-12-29T15:28:24;11.00;99.90
12446;DHT22;6287;50.984;7.022;2023-12-29T15:30:53;10.90;99.90
12446;DHT22;6287;50.984;7.022;2023-12-29T15:33:19;10.90;99.90
12446;DHT22;6287;50.984;7.022;2023-12-29T15:35:49;10.90;99.90
12446;DHT22;6287;50.984;7.022;2023-12-29T15:38:17;10.90;99.90
12446;DHT22;6287;50.984;7.022;2023-12-29T15:40:47;11.00;99.90
12446;DHT22;6287;50.984;7.022;2023-12-29T15:43:15;11.00;99.90
12446;DHT22;6287;50.984;7.022;2023-12-29T15:45:40;11.00;99.90
12446;DHT22;6287;50.984;7.022;2023-12-29T15:48:06;11.00;99.90
12446;DHT22;6287;50.984;7.022;2023-12-29T15:50:32;11.00;99.90
12446;DHT22;6287;50.984;7.022;2023-12-29T15:52:57;11.00;99.90
12446;DHT22;6287;50.984;7.022;2023-12-29T15:55:25;11.00;99.90
12446;DHT22;6287;50.984;7.022;2023-12-29T15:57:55;11.00;99.90
12446;DHT22;6287;50.984;7.022;2023-12-29T16:00:21;10.90;99.90
12446;DHT22;6287;50.984;7.022;2023-12-29T16:02:50;10.90;99.90
12446;DHT22;6287;50.984;7.022;2023-12-29T16:05:15;10.90;99.90
12446;DHT22;6287;50.984;7.022;2023-12-29T16:07:41;10.90;99.90
12446;DHT22;6287;50.984;7.022;2023-12-29T16:10:09;11.00;99.90
12446;DHT22;6287;50.984;7.022;2023-12-29T16:12:35;10.90;99.90
12446;DHT22;6287;50.984;7.022;2023-12-29T16:15:01;10.90;99.90
12446;DHT22;6287;50.984;7.022;2023-12-29T16:17:31;10.90;99.90
12446;DHT22;6287;50.984;7.022;2023-12-29T16:20:01;10.90;99.90